Time;durP1;ratioP1;P1;durP2;ratioP2;P2;SDS_P1;SDS_P2;PMS_P1;PMS_P2;Temp;Humidity;BMP_temperature;BMP_pressure;BME280_temperature;BME280_humidity;BME280_pressure;Samples;Min_cycle;Max_cycle;Signal;HPM_P1;HPM_P2
2021/07/21 00:02:43;;;;;;;11.67;7.53;;;;;;;14.53;89.18;99573.00;10451789;28;20176;-78
2021/07/21 00:08:02;;;;;;;14.90;8.70;;;;;;;14.48;90.20;99570.66;10417668;28;20533;-79
2021/07/21 00:13:27;;;;;;;13.23;7.70;;;;;;;14.28;90.86;99571.69;10449249;28;20219;-78
2021/07/21 00:18:52;;;;;;;10.83;7.30;;;;;;;14.20;90.29;99570.19;10458647;28;20564;-78
2021/07/21 00:24:11;;;;;;;8.40;7.50;;;;;;;14.22;89.60;99573.34;10418056;28;20607;-78
2021/07/21 00:29:30;;;;;;;7.70;6.60;;;;;;;14.21;89.10;99572.56;10416837;28;20570;-79
2021/07/21 00:34:49;;;;;;;14.93;7.07;;;;;;;14.18;89.17;99567.84;10457649;28;20219;-79
2021/07/21 00:40:11;;;;;;;10.07;7.40;;;;;;;14.23;90.76;99572.91;10451187;28;20175;-79
2021/07/21 00:45:29;;;;;;;8.13;7.10;;;;;;;14.10;90.91;99566.31;10415270;28;20641;-79
2021/07/21 00:50:48;;;;;;;11.50;7.90;;;;;;;14.05;90.92;99569.53;10427623;28;20653;-78
2021/07/21 00:56:07;;;;;;;11.07;7.90;;;;;;;14.01;90.01;99568.00;10457281;28;20180;-78
2021/07/21 01:01:26;;;;;;;11.27;7.83;;;;;;;14.02;91.24;99564.81;10423659;28;20286;-78
2021/07/21 01:06:45;;;;;;;8.83;7.30;;;;;;;13.94;93.31;99559.75;10415687;28;20242;-79
2021/07/21 01:12:23;;;;;;;9.73;7.40;;;;;;;13.73;94.71;99557.19;10421347;28;20207;-78
2021/07/21 01:18:02;;;;;;;11.73;6.93;;;;;;;13.69;93.42;99568.28;10454843;28;20641;-79
2021/07/21 01:23:48;;;;;;;14.83;8.33;;;;;;;13.70;95.46;99569.88;10423730;28;20200;-78
2021/07/21 01:29:08;;;;;;;10.30;7.57;;;;;;;13.71;95.99;99560.38;10413577;28;20620;-79
2021/07/21 01:34:31;;;;;;;8.47;7.53;;;;;;;13.58;97.90;99564.03;10414707;28;20243;-79
2021/07/21 01:39:57;;;;;;;7.57;6.80;;;;;;;13.30;100.00;99555.19;10402268;28;20196;-79
2021/07/21 01:45:15;;;;;;;12.90;8.07;;;;;;;13.30;100.00;99564.25;10454809;28;20265;-79
2021/07/21 01:50:35;;;;;;;10.47;9.37;;;;;;;13.23;100.00;99555.22;10431837;28;20207;-77
2021/07/21 01:55:55;;;;;;;11.03;8.10;;;;;;;13.16;100.00;99561.59;10414722;28;20176;-77
2021/07/21 02:01:14;;;;;;;15.90;8.37;;;;;;;13.01;100.00;99567.59;10426483;28;20195;-79
2021/07/21 02:06:35;;;;;;;11.43;8.03;;;;;;;12.93;100.00;99577.09;10440524;28;20266;-79
2021/07/21 02:11:55;;;;;;;12.33;7.00;;;;;;;12.88;100.00;99570.03;10436128;28;20247;-78
2021/07/21 02:17:16;;;;;;;10.10;7.77;;;;;;;12.89;100.00;99566.06;10398587;28;20630;-78
2021/07/21 02:22:37;;;;;;;12.47;7.50;;;;;;;12.79;100.00;99571.63;10437894;28;20673;-78
2021/07/21 02:27:57;;;;;;;10.10;7.70;;;;;;;12.73;100.00;99574.00;10453734;28;20226;-78
2021/07/21 02:33:32;;;;;;;13.63;8.47;;;;;;;12.63;100.00;99563.03;10428740;28;20203;-77
2021/07/21 02:38:52;;;;;;;11.57;8.80;;;;;;;12.68;100.00;99573.66;10406382;28;20626;-79
2021/07/21 02:44:11;;;;;;;15.13;8.10;;;;;;;12.55;100.00;99574.50;10440241;28;20258;-77
2021/07/21 02:49:30;;;;;;;10.20;7.50;;;;;;;12.58;100.00;99574.50;10447023;28;20176;-78
2021/07/21 02:55:09;;;;;;;8.20;7.40;;;;;;;12.44;100.00;99571.00;10405333;28;20686;-78
2021/07/21 03:00:30;;;;;;;9.10;8.03;;;;;;;12.37;100.00;99574.56;10420384;28;20195;-78
2021/07/21 03:05:55;;;;;;;10.23;7.50;;;;;;;12.31;100.00;99576.16;10446509;28;20566;-77
2021/07/21 03:11:16;;;;;;;10.47;7.70;;;;;;;12.37;100.00;99580.06;10449805;28;20666;-78
2021/07/21 03:16:38;;;;;;;11.77;7.30;;;;;;;12.18;100.00;99588.00;10418806;28;20184;-78
2021/07/21 03:21:59;;;;;;;9.13;7.47;;;;;;;12.10;100.00;99587.25;10436556;28;20203;-78
2021/07/21 03:27:19;;;;;;;13.40;8.20;;;;;;;12.11;100.00;99583.31;10444600;28;20649;-79
2021/07/21 03:32:41;;;;;;;9.27;8.00;;;;;;;12.14;100.00;99588.03;10422497;28;20223;-79
2021/07/21 03:38:02;;;;;;;12.10;8.67;;;;;;;12.12;100.00;99586.84;10404278;28;20258;-78
2021/07/21 03:43:22;;;;;;;10.50;8.43;;;;;;;12.11;100.00;99588.03;10429804;28;20171;-79
2021/07/21 03:48:41;;;;;;;13.53;8.23;;;;;;;12.13;100.00;99593.94;10459961;28;20167;-78
2021/07/21 03:54:02;;;;;;;13.10;8.20;;;;;;;12.15;100.00;99599.84;10410574;28;20690;-79
2021/07/21 03:59:23;;;;;;;9.77;8.70;;;;;;;12.15;100.00;99597.88;10402013;28;20188;-78
2021/07/21 04:04:47;;;;;;;12.93;9.60;;;;;;;12.24;100.00;99603.78;10441373;28;20265;-78
2021/07/21 04:10:08;;;;;;;16.47;9.30;;;;;;;12.15;100.00;99617.19;10458549;28;20187;-78
2021/07/21 04:15:27;;;;;;;12.73;8.50;;;;;;;12.13;100.00;99613.25;10416545;28;20188;-78
2021/07/21 04:20:48;;;;;;;11.80;8.93;;;;;;;12.17;100.00;99619.53;10422859;28;20206;-78
2021/07/21 04:26:10;;;;;;;12.60;8.33;;;;;;;12.14;100.00;99618.38;10458607;28;20179;-77
2021/07/21 04:31:30;;;;;;;14.63;9.30;;;;;;;12.09;100.00;99626.25;10444793;28;20693;-78
2021/07/21 04:36:50;;;;;;;14.43;7.70;;;;;;;12.20;100.00;99619.53;10401904;28;20204;-81
2021/07/21 04:42:09;;;;;;;12.27;9.30;;;;;;;12.12;100.00;99626.25;10417875;28;20183;-80
2021/07/21 04:47:28;;;;;;;14.23;7.90;;;;;;;12.29;100.00;99628.19;10442780;28;20171;-79
2021/07/21 04:52:48;;;;;;;10.63;8.57;;;;;;;12.44;100.00;99629.72;10420155;28;20688;-79
2021/07/21 04:58:08;;;;;;;10.23;8.20;;;;;;;12.62;100.00;99629.69;10420029;28;20209;-78
2021/07/21 05:03:27;;;;;;;12.40;8.70;;;;;;;12.84;100.00;99643.03;10419569;28;20184;-79
2021/07/21 05:08:46;;;;;;;10.10;9.00;;;;;;;13.17;100.00;99651.56;10433516;28;20552;-78
2021/07/21 05:14:06;;;;;;;11.13;9.47;;;;;;;13.51;100.00;99652.56;10447305;28;20614;-80
2021/07/21 05:19:25;;;;;;;14.53;9.10;;;;;;;13.74;100.00;99653.56;10456367;28;20278;-78
2021/07/21 05:24:44;;;;;;;11.07;9.37;;;;;;;14.02;100.00;99658.88;10420957;28;20183;-78
2021/07/21 05:30:05;;;;;;;9.87;8.87;;;;;;;14.29;100.00;99659.88;10413280;28;20713;-78
2021/07/21 05:35:24;;;;;;;9.10;8.07;;;;;;;14.62;98.17;99664.63;10414437;28;20215;-78
2021/07/21 05:40:43;;;;;;;10.70;8.37;;;;;;;14.84;96.65;99666.00;10414890;28;20255;-78
2021/07/21 05:46:02;;;;;;;9.53;7.80;;;;;;;15.16;94.11;99672.72;10454718;28;20168;-78
2021/07/21 05:51:21;;;;;;;8.87;7.97;;;;;;;15.40;93.00;99683.53;10450129;28;20215;-78
2021/07/21 05:56:40;;;;;;;10.37;7.63;;;;;;;15.69;90.31;99683.91;10414604;28;20175;-78
2021/07/21 06:01:59;;;;;;;7.53;6.87;;;;;;;16.06;89.42;99670.63;10423418;28;20634;-79
2021/07/21 06:07:18;;;;;;;10.13;7.73;;;;;;;16.43;87.29;99675.97;10459345;28;20526;-78
2021/07/21 06:12:37;;;;;;;10.07;7.60;;;;;;;16.68;84.44;99677.06;10446685;28;20238;-80
2021/07/21 06:17:56;;;;;;;10.50;8.13;;;;;;;17.00;82.94;99680.03;10422275;28;20286;-77
2021/07/21 06:23:15;;;;;;;11.80;7.53;;;;;;;17.01;81.08;99678.81;10442352;28;20206;-78
2021/07/21 06:28:34;;;;;;;10.73;8.43;;;;;;;17.43;78.74;99681.53;10461709;28;20215;-79
2021/07/21 06:33:53;;;;;;;8.27;7.57;;;;;;;17.83;77.17;99688.56;10437069;28;20212;-79
2021/07/21 06:39:12;;;;;;;8.80;7.90;;;;;;;18.18;77.81;99690.50;10421474;28;20207;-80
2021/07/21 06:44:31;;;;;;;9.57;7.63;;;;;;;18.62;74.21;99699.72;10448888;28;20184;-80
2021/07/21 06:49:52;;;;;;;8.07;6.97;;;;;;;18.85;73.81;99693.94;10461732;28;20282;-78
2021/07/21 06:55:11;;;;;;;8.63;7.53;;;;;;;19.11;72.30;99701.19;10410940;28;20669;-78
2021/07/21 07:00:31;;;;;;;9.50;7.60;;;;;;;19.81;68.32;99696.31;10404499;28;20172;-78
2021/07/21 07:05:50;;;;;;;7.33;6.73;;;;;;;20.19;65.54;99698.66;10445135;28;20183;-78
2021/07/21 07:11:10;;;;;;;7.80;7.00;;;;;;;20.52;64.89;99705.53;10459912;28;20207;-78
2021/07/21 07:16:29;;;;;;;8.67;7.03;;;;;;;20.93;64.45;99699.72;10419545;28;20188;-78
2021/07/21 07:21:48;;;;;;;8.60;6.67;;;;;;;21.49;63.29;99692.06;10421118;28;20187;-76
2021/07/21 07:27:07;;;;;;;7.30;5.93;;;;;;;22.03;57.92;99702.34;10419676;28;20642;-76
2021/07/21 07:32:26;;;;;;;10.00;6.20;;;;;;;22.23;57.00;99699.91;10418760;28;20220;-78
2021/07/21 07:37:45;;;;;;;8.63;6.83;;;;;;;22.69;54.99;99699.56;10422957;28;20179;-80
2021/07/21 07:43:03;;;;;;;11.63;5.87;;;;;;;23.45;54.07;99692.56;10443936;28;20179;-79
2021/07/21 07:48:23;;;;;;;8.57;5.63;;;;;;;23.66;51.24;99687.97;10435050;28;20218;-78
2021/07/21 07:53:42;;;;;;;7.77;5.60;;;;;;;23.78;50.10;99678.63;10418226;28;20566;-81
2021/07/21 07:59:02;;;;;;;6.60;4.63;;;;;;;24.33;49.60;99691.94;10431845;28;20184;-78
2021/07/21 08:04:21;;;;;;;6.07;5.50;;;;;;;24.74;48.33;99688.25;10444019;28;20637;-79
2021/07/21 08:09:40;;;;;;;8.37;5.93;;;;;;;24.92;47.60;99686.09;10439075;28;20176;-80
2021/07/21 08:14:59;;;;;;;5.93;5.07;;;;;;;25.28;44.37;99688.63;10434985;28;20212;-79
2021/07/21 08:20:18;;;;;;;7.70;5.50;;;;;;;25.72;43.20;99680.97;10457576;28;20207;-79
2021/07/21 08:25:37;;;;;;;5.77;5.20;;;;;;;25.55;43.77;99689.13;10431946;28;20179;-80
2021/07/21 08:30:57;;;;;;;8.43;5.10;;;;;;;26.18;41.87;99677.91;10414322;28;20580;-77
2021/07/21 08:36:17;;;;;;;5.10;4.60;;;;;;;26.55;40.13;99678.97;10418157;28;20227;-78
2021/07/21 08:41:36;;;;;;;5.57;4.90;;;;;;;26.05;39.96;99673.84;10416626;28;20184;-77
2021/07/21 08:46:56;;;;;;;7.80;5.80;;;;;;;25.23;42.86;99680.84;10451298;28;20183;-77
2021/07/21 08:52:17;;;;;;;5.27;4.77;;;;;;;25.37;43.77;99686.50;10442179;28;20234;-79
2021/07/21 08:57:36;;;;;;;5.40;5.00;;;;;;;26.54;39.71;99682.28;10415110;28;20211;-79
2021/07/21 09:02:56;;;;;;;5.30;4.77;;;;;;;26.46;40.53;99684.75;10403794;28;20183;-78
2021/07/21 09:08:15;;;;;;;10.00;5.50;;;;;;;27.11;38.04;99687.69;10457092;28;20664;-79
2021/07/21 09:13:35;;;;;;;5.90;5.33;;;;;;;26.78;37.19;99694.94;10446573;28;20208;-78
2021/07/21 09:18:58;;;;;;;6.50;5.63;;;;;;;27.23;36.70;99682.94;10400516;28;20200;-78
2021/07/21 09:24:21;;;;;;;6.10;5.50;;;;;;;28.45;35.69;99684.28;10429155;28;20196;-79
2021/07/21 09:29:41;;;;;;;5.47;4.90;;;;;;;29.09;35.91;99687.94;10432261;28;20215;-76
2021/07/21 09:35:00;;;;;;;5.03;4.60;;;;;;;28.58;35.86;99679.72;10420462;28;20208;-78
2021/07/21 09:40:19;;;;;;;5.57;5.07;;;;;;;29.18;34.74;99684.88;10414328;28;20179;-80
2021/07/21 09:45:39;;;;;;;5.50;5.20;;;;;;;29.41;32.82;99663.84;10413483;28;20180;-79
2021/07/21 09:50:58;;;;;;;8.30;5.97;;;;;;;29.58;32.86;99671.09;10399272;28;20191;-79
2021/07/21 09:56:32;;;;;;;10.20;5.40;;;;;;;29.68;34.50;99668.78;10414521;28;20630;-79
2021/07/21 10:01:52;;;;;;;5.23;4.83;;;;;;;30.06;33.93;99666.72;10413084;28;20180;-78
2021/07/21 10:07:44;;;;;;;5.37;5.03;;;;;;;30.43;32.55;99658.66;10414059;28;20180;-78
2021/07/21 10:13:08;;;;;;;8.13;4.60;;;;;;;29.39;32.11;99674.94;10412574;28;20669;-77
2021/07/21 10:18:28;;;;;;;4.77;4.47;;;;;;;29.80;32.45;99665.41;10415372;28;20192;-77
2021/07/21 10:23:47;;;;;;;5.90;5.40;;;;;;;30.23;30.82;99658.97;10440245;28;20171;-76
2021/07/21 10:29:07;;;;;;;5.60;5.10;;;;;;;30.15;31.61;99657.94;10446907;28;20291;-77
2021/07/21 10:34:26;;;;;;;4.90;4.47;;;;;;;31.00;31.04;99653.06;10413291;28;20239;-76
2021/07/21 10:39:50;;;;;;;6.57;5.07;;;;;;;31.70;30.82;99659.66;10425287;28;20183;-77
2021/07/21 10:45:16;;;;;;;5.43;4.93;;;;;;;31.65;28.80;99657.59;10453626;28;20176;-76
2021/07/21 11:02:02;;;;;;;5.43;5.03;;;;;;;32.86;28.28;99640.09;10418550;28;20184;-76
2021/07/21 11:07:47;;;;;;;5.80;5.13;;;;;;;32.37;31.03;99649.97;10405308;28;20176;-77
2021/07/21 11:13:12;;;;;;;5.43;4.90;;;;;;;32.40;29.46;99642.44;10428437;28;20214;-76
2021/07/21 11:18:31;;;;;;;5.87;5.37;;;;;;;33.12;26.30;99634.59;10460879;28;20187;-78
2021/07/21 11:23:53;;;;;;;4.93;4.63;;;;;;;33.25;29.03;99632.56;10445919;28;20630;-77
2021/07/21 11:29:29;;;;;;;6.00;5.40;;;;;;;33.33;25.83;99634.28;10459406;28;20242;-79
2021/07/21 11:34:48;;;;;;;5.23;4.73;;;;;;;32.79;28.19;99640.72;10444578;28;20290;-76
2021/07/21 11:40:14;;;;;;;5.07;4.77;;;;;;;32.78;28.54;99630.63;10445342;28;20179;-76
2021/07/21 11:45:33;;;;;;;5.60;5.20;;;;;;;33.81;26.26;99628.34;10447274;28;20277;-78
2021/07/21 11:50:53;;;;;;;6.53;4.70;;;;;;;34.34;26.82;99610.78;10459980;28;20645;-77
2021/07/21 11:56:12;;;;;;;5.23;4.90;;;;;;;34.60;26.06;99616.53;10421309;28;20725;-76
2021/07/21 12:01:31;;;;;;;5.17;4.87;;;;;;;32.75;28.87;99617.44;10417277;28;20195;-79
2021/07/21 12:06:50;;;;;;;4.80;4.40;;;;;;;32.68;28.50;99615.94;10417916;28;20191;-77
2021/07/21 12:12:12;;;;;;;5.50;5.10;;;;;;;32.47;27.09;99622.69;10422075;28;20242;-80
2021/07/21 12:17:31;;;;;;;6.83;4.33;;;;;;;33.75;26.94;99615.47;10458989;28;20223;-76
2021/07/21 12:22:50;;;;;;;5.00;4.50;;;;;;;33.51;28.28;99607.81;10449338;28;20188;-76
2021/07/21 12:28:09;;;;;;;5.17;4.87;;;;;;;33.20;29.75;99613.47;10416178;28;20310;-76
2021/07/21 12:33:28;;;;;;;6.30;5.10;;;;;;;32.17;27.93;99613.41;10430890;28;20214;-77
2021/07/21 12:38:47;;;;;;;5.30;4.80;;;;;;;31.07;30.99;99612.72;10458003;28;20291;-77
2021/07/21 12:44:18;;;;;;;5.67;5.17;;;;;;;32.34;29.26;99616.09;10437319;28;20188;-75
2021/07/21 12:49:42;;;;;;;5.17;4.80;;;;;;;34.04;25.20;99606.63;10416568;28;20631;-77
2021/07/21 12:55:05;;;;;;;4.93;4.43;;;;;;;34.65;23.67;99597.72;10442208;28;20306;-77
2021/07/21 13:00:28;;;;;;;5.67;5.07;;;;;;;34.02;25.49;99594.22;10455749;28;20257;-77
2021/07/21 13:05:47;;;;;;;5.40;4.77;;;;;;;33.56;29.12;99591.91;10409065;28;20661;-77
2021/07/21 13:11:14;;;;;;;4.80;4.40;;;;;;;33.95;25.71;99586.31;10415528;28;20203;-77
2021/07/21 13:16:34;;;;;;;5.40;4.57;;;;;;;34.16;26.60;99590.88;10452213;28;20195;-78
2021/07/21 13:21:53;;;;;;;5.20;4.70;;;;;;;34.48;26.54;99588.69;10441207;28;20175;-78
2021/07/21 13:27:13;;;;;;;4.97;4.73;;;;;;;34.64;23.61;99584.75;10400201;28;20168;-78
2021/07/21 13:32:32;;;;;;;5.13;4.70;;;;;;;33.92;26.88;99576.75;10419649;28;20215;-76
2021/07/21 13:37:57;;;;;;;4.90;4.60;;;;;;;34.22;25.47;99571.53;10456129;28;20174;-77
2021/07/21 13:43:16;;;;;;;5.80;5.30;;;;;;;34.35;25.82;99582.94;10428503;28;20595;-76
2021/07/21 13:48:35;;;;;;;5.10;4.70;;;;;;;34.51;24.79;99571.19;10399592;28;20237;-76
2021/07/21 13:53:54;;;;;;;4.90;4.53;;;;;;;34.30;25.85;99566.69;10429848;28;20297;-77
2021/07/21 13:59:13;;;;;;;5.97;4.83;;;;;;;33.21;25.79;99569.38;10454626;28;20572;-77
2021/07/21 14:04:32;;;;;;;5.63;5.03;;;;;;;32.89;25.96;99559.97;10419346;28;20232;-77
2021/07/21 14:09:52;;;;;;;5.90;5.30;;;;;;;32.65;28.59;99557.19;10414479;28;20184;-77
2021/07/21 14:15:11;;;;;;;4.60;4.20;;;;;;;33.41;27.85;99560.22;10421810;28;20219;-77
2021/07/21 14:20:30;;;;;;;4.83;4.20;;;;;;;33.48;27.30;99548.94;10455301;28;20183;-77
2021/07/21 14:25:49;;;;;;;4.97;4.50;;;;;;;31.68;28.67;99543.50;10425894;28;20195;-77
2021/07/21 14:31:11;;;;;;;5.20;4.70;;;;;;;32.84;27.91;99531.53;10406118;28;22174;-77
2021/07/21 14:36:30;;;;;;;4.73;4.40;;;;;;;33.12;26.82;99537.63;10422410;28;20180;-77
2021/07/21 14:41:53;;;;;;;5.60;5.07;;;;;;;34.42;25.97;99528.78;10462859;28;20573;-76
2021/07/21 14:47:12;;;;;;;4.70;4.30;;;;;;;34.40;25.53;99522.09;10454481;28;20191;-77
2021/07/21 14:52:31;;;;;;;6.83;4.50;;;;;;;34.28;26.44;99512.19;10420971;28;20560;-77
2021/07/21 14:57:50;;;;;;;5.03;4.50;;;;;;;34.77;25.69;99510.38;10430790;28;20258;-78
2021/07/21 15:03:11;;;;;;;5.30;4.80;;;;;;;34.58;25.46;99506.88;10462131;28;20175;-76
2021/07/21 15:08:30;;;;;;;5.27;4.90;;;;;;;34.49;27.30;99515.91;10429394;28;20187;-78
2021/07/21 15:13:49;;;;;;;4.80;4.50;;;;;;;35.03;24.58;99511.84;10418505;28;20202;-78
2021/07/21 15:19:09;;;;;;;4.83;4.43;;;;;;;34.20;24.09;99511.31;10441713;28;20607;-76
2021/07/21 15:24:28;;;;;;;4.83;4.43;;;;;;;34.46;26.30;99511.28;10451031;28;20191;-76
2021/07/21 15:29:47;;;;;;;4.63;4.27;;;;;;;33.92;26.58;99508.22;10418387;28;20227;-77
2021/07/21 15:35:09;;;;;;;5.37;4.97;;;;;;;33.97;25.33;99515.91;10421336;28;20215;-76
2021/07/21 15:40:27;;;;;;;5.40;4.90;;;;;;;34.44;25.65;99511.84;10460069;28;20175;-77
2021/07/21 15:45:46;;;;;;;4.70;4.30;;;;;;;34.41;26.09;99509.34;10420379;28;20187;-77
2021/07/21 15:51:05;;;;;;;6.93;4.67;;;;;;;34.42;25.27;99499.41;10403595;28;20179;-77
2021/07/21 15:56:24;;;;;;;4.73;4.33;;;;;;;34.47;26.71;99501.41;10446405;28;20187;-77
2021/07/21 16:01:44;;;;;;;3.93;3.73;;;;;;;33.37;25.82;99503.47;10458556;28;20183;-77
2021/07/21 16:07:03;;;;;;;5.33;4.83;;;;;;;33.27;27.24;99492.28;10411133;28;20214;-77
2021/07/21 16:12:22;;;;;;;3.77;3.57;;;;;;;33.86;27.71;99492.50;10401876;28;20708;-77
2021/07/21 16:17:42;;;;;;;4.80;4.40;;;;;;;32.04;26.89;99493.69;10455689;28;20234;-76
2021/07/21 16:23:01;;;;;;;7.20;4.47;;;;;;;31.69;28.69;99493.06;10453559;28;20184;-79
2021/07/21 16:28:19;;;;;;;4.90;4.60;;;;;;;32.15;30.42;99490.72;10448461;28;20223;-77
2021/07/21 16:33:39;;;;;;;5.80;5.40;;;;;;;32.46;29.81;99492.94;10431832;28;20656;-78
2021/07/21 16:38:58;;;;;;;5.60;5.10;;;;;;;32.68;30.35;99489.81;10457868;28;20183;-78
2021/07/21 16:44:17;;;;;;;5.57;5.13;;;;;;;32.10;30.38;99493.66;10426454;28;20187;-77
2021/07/21 16:49:35;;;;;;;7.23;6.53;;;;;;;31.48;32.41;99494.00;10415981;28;20262;-77
2021/07/21 16:54:54;;;;;;;6.13;5.63;;;;;;;31.31;31.49;99494.16;10450569;28;20207;-77
2021/07/21 17:00:35;;;;;;;6.20;5.70;;;;;;;31.26;31.88;99491.38;10456277;28;20663;-75
2021/07/21 17:05:54;;;;;;;5.00;4.70;;;;;;;31.22;31.46;99499.41;10416004;28;20583;-77
2021/07/21 17:11:13;;;;;;;6.50;5.97;;;;;;;31.14;31.57;99498.44;10416019;28;20176;-75
2021/07/21 17:16:32;;;;;;;6.07;5.57;;;;;;;31.30;31.25;99501.13;10414438;28;20191;-77
2021/07/21 17:21:52;;;;;;;6.63;6.13;;;;;;;31.54;31.41;99503.28;10423309;28;20273;-76
2021/07/21 17:27:11;;;;;;;6.13;5.37;;;;;;;32.07;30.44;99504.03;10439756;28;20187;-76
2021/07/21 17:32:30;;;;;;;7.00;6.30;;;;;;;32.36;29.90;99500.31;10440597;28;20693;-75
2021/07/21 17:37:49;;;;;;;6.77;6.03;;;;;;;32.94;29.39;99507.78;10432614;28;20681;-75
2021/07/21 17:43:09;;;;;;;7.70;6.60;;;;;;;33.15;29.19;99508.03;10413766;28;20176;-77
2021/07/21 17:48:28;;;;;;;7.00;6.33;;;;;;;33.43;28.08;99495.63;10421911;28;20653;-76
2021/07/21 17:53:47;;;;;;;6.57;6.03;;;;;;;31.31;30.92;99514.06;10440226;28;20203;-78
2021/07/21 17:59:06;;;;;;;6.80;6.17;;;;;;;29.32;35.39;99511.75;10426361;28;20203;-77
2021/07/21 18:04:25;;;;;;;7.57;6.43;;;;;;;28.24;37.67;99515.13;10437442;28;20262;-78
2021/07/21 18:09:45;;;;;;;6.63;6.03;;;;;;;27.49;39.83;99520.53;10444820;28;20191;-77
2021/07/21 18:15:05;;;;;;;8.20;6.70;;;;;;;27.00;40.33;99514.47;10420820;28;20709;-76
2021/07/21 18:20:24;;;;;;;8.83;6.70;;;;;;;26.51;42.02;99511.13;10422843;28;20188;-75
2021/07/21 18:25:43;;;;;;;7.50;6.80;;;;;;;26.08;43.38;99512.13;10422930;28;20211;-77
2021/07/21 18:31:05;;;;;;;7.87;7.10;;;;;;;25.43;45.13;99512.72;10430542;28;20686;-75
2021/07/21 18:36:24;;;;;;;6.83;6.07;;;;;;;25.02;46.16;99513.00;10447831;28;20180;-77
2021/07/21 18:41:43;;;;;;;7.23;6.53;;;;;;;24.76;47.39;99506.41;10431592;28;20180;-76
2021/07/21 18:47:03;;;;;;;11.83;7.50;;;;;;;24.51;48.42;99518.22;10420188;28;20250;-76
2021/07/21 18:52:21;;;;;;;10.10;7.30;;;;;;;24.33;49.55;99518.34;10456755;28;20804;-77
2021/07/21 18:57:40;;;;;;;15.57;7.17;;;;;;;23.97;50.87;99523.47;10445794;28;21000;-78
2021/07/21 19:02:59;;;;;;;9.43;6.83;;;;;;;23.74;51.98;99520.66;10421118;28;20192;-77
2021/07/21 19:08:18;;;;;;;7.63;7.00;;;;;;;23.43;51.96;99528.59;10422260;28;20224;-79
2021/07/21 19:13:37;;;;;;;8.50;7.67;;;;;;;23.34;52.96;99549.03;10458607;28;20696;-78
2021/07/21 19:18:56;;;;;;;13.03;7.80;;;;;;;23.04;53.72;99545.72;10454053;28;20188;-79
2021/07/21 19:24:15;;;;;;;12.63;7.20;;;;;;;22.80;54.85;99548.41;10420013;28;20672;-78
2021/07/21 19:29:34;;;;;;;8.67;7.87;;;;;;;22.49;54.95;99554.66;10430121;28;20740;-78
2021/07/21 19:34:54;;;;;;;9.40;7.47;;;;;;;22.20;55.62;99566.31;10460485;28;20709;-79
2021/07/21 19:40:14;;;;;;;8.03;6.80;;;;;;;21.91;56.33;99560.31;10443375;28;20192;-78
2021/07/21 19:45:33;;;;;;;7.93;7.17;;;;;;;21.70;56.90;99577.22;10417958;28;20630;-79
2021/07/21 19:50:52;;;;;;;7.27;6.57;;;;;;;21.53;57.22;99570.28;10404928;28;20180;-78
2021/07/21 19:56:11;;;;;;;11.60;6.20;;;;;;;21.38;58.29;99579.72;10403728;28;20188;-79
2021/07/21 20:01:30;;;;;;;14.80;7.03;;;;;;;21.27;59.56;99580.13;10439400;28;20227;-78
2021/07/21 20:06:50;;;;;;;7.80;6.90;;;;;;;21.09;60.22;99576.44;10459415;28;20547;-79
2021/07/21 20:12:09;;;;;;;12.27;6.73;;;;;;;20.92;60.83;99583.47;10442666;28;20215;-77
2021/07/21 20:17:28;;;;;;;11.20;7.20;;;;;;;20.67;62.23;99589.19;10403044;28;20218;-78
2021/07/21 20:22:47;;;;;;;9.20;6.57;;;;;;;20.49;63.29;99589.06;10423228;28;20179;-78
2021/07/21 20:28:06;;;;;;;7.73;6.93;;;;;;;20.30;64.38;99592.91;10442207;28;20223;-79
2021/07/21 20:33:26;;;;;;;9.93;7.20;;;;;;;20.20;64.85;99596.84;10458192;28;20207;-78
2021/07/21 20:38:46;;;;;;;21.57;7.37;;;;;;;20.06;65.61;99591.75;10419859;28;20188;-78
2021/07/21 20:44:06;;;;;;;12.03;6.63;;;;;;;19.80;66.43;99608.97;10409001;28;20183;-77
2021/07/21 20:49:25;;;;;;;10.90;6.77;;;;;;;19.64;66.92;99603.50;10416784;28;20187;-77
2021/07/21 20:54:44;;;;;;;8.40;6.63;;;;;;;19.58;67.33;99610.88;10415957;28;20244;-78
2021/07/21 21:00:06;;;;;;;9.50;6.87;;;;;;;19.36;68.35;99600.81;10453677;28;20187;-77
2021/07/21 21:05:25;;;;;;;9.97;6.33;;;;;;;19.14;69.61;99615.84;10457375;28;20584;-77
2021/07/21 21:10:44;;;;;;;9.10;6.77;;;;;;;19.06;69.99;99603.31;10442122;28;20200;-76
2021/07/21 21:16:05;;;;;;;7.30;6.50;;;;;;;18.97;70.29;99612.34;10415678;28;20713;-77
2021/07/21 21:21:24;;;;;;;7.50;5.60;;;;;;;18.88;70.50;99609.41;10415690;28;20176;-78
2021/07/21 21:26:45;;;;;;;7.30;5.50;;;;;;;18.73;71.92;99613.84;10415571;28;20654;-78
2021/07/21 21:32:04;;;;;;;9.67;6.93;;;;;;;18.56;72.82;99619.88;10432065;28;20227;-78
2021/07/21 21:37:23;;;;;;;6.80;5.90;;;;;;;18.44;72.97;99623.41;10455943;28;20175;-78
2021/07/21 21:42:42;;;;;;;7.67;6.03;;;;;;;18.37;73.17;99623.59;10439838;28;20275;-78
2021/07/21 21:48:01;;;;;;;6.33;5.73;;;;;;;18.32;73.54;99621.31;10449163;28;20172;-77
2021/07/21 21:53:20;;;;;;;10.63;6.10;;;;;;;18.11;74.27;99621.06;10414623;28;20286;-77
2021/07/21 21:58:39;;;;;;;7.67;6.20;;;;;;;18.11;74.23;99629.41;10413351;28;20180;-78
2021/07/21 22:03:58;;;;;;;10.80;6.13;;;;;;;18.02;74.40;99630.03;10414490;28;20169;-77
2021/07/21 22:09:19;;;;;;;6.33;5.77;;;;;;;17.88;75.33;99632.38;10436055;28;20187;-77
2021/07/21 22:14:38;;;;;;;7.30;5.80;;;;;;;17.69;76.68;99622.09;10438655;28;20207;-78
2021/07/21 22:19:57;;;;;;;5.93;5.33;;;;;;;17.55;77.57;99628.00;10455526;28;20180;-78
2021/07/21 22:25:36;;;;;;;7.80;6.20;;;;;;;17.50;78.32;99636.88;10440277;28;20828;-79
2021/07/21 22:31:01;;;;;;;9.00;6.17;;;;;;;17.51;77.83;99638.44;10428473;28;20223;-77
2021/07/21 22:36:23;;;;;;;7.83;5.80;;;;;;;17.45;77.93;99639.38;10399002;28;20182;-77
2021/07/21 22:41:54;;;;;;;7.57;5.47;;;;;;;17.34;78.59;99636.81;10413916;28;20590;-77
2021/07/21 22:47:13;;;;;;;8.83;5.83;;;;;;;17.27;78.85;99641.72;10397642;28;20631;-77
2021/07/21 22:52:32;;;;;;;7.53;6.83;;;;;;;17.23;78.75;99633.47;10420727;28;20243;-76
2021/07/21 22:57:51;;;;;;;8.97;6.60;;;;;;;17.15;79.27;99631.28;10404970;28;20549;-78
2021/07/21 23:03:47;;;;;;;9.13;6.37;;;;;;;17.11;79.75;99636.09;10405948;28;20175;-78
2021/07/21 23:09:44;;;;;;;12.80;7.23;;;;;;;17.09;79.49;99633.78;10420894;28;20172;-78
2021/07/21 23:15:13;;;;;;;8.23;5.87;;;;;;;17.02;80.10;99633.91;10418691;28;20742;-77
2021/07/21 23:20:32;;;;;;;6.77;5.70;;;;;;;16.97;80.32;99636.41;10459166;28;20266;-77
2021/07/21 23:25:51;;;;;;;8.50;6.63;;;;;;;16.88;81.25;99630.63;10461343;28;20167;-78
2021/07/21 23:31:11;;;;;;;13.50;6.27;;;;;;;16.78;81.96;99628.84;10459416;28;20677;-78
2021/07/21 23:36:32;;;;;;;11.57;6.60;;;;;;;16.73;82.30;99631.34;10445772;28;20183;-76
2021/07/21 23:42:00;;;;;;;7.80;6.97;;;;;;;16.71;82.36;99636.56;10460654;28;20246;-78
2021/07/21 23:47:20;;;;;;;7.17;6.47;;;;;;;16.69;82.59;99641.75;10420763;28;20176;-77
2021/07/21 23:52:40;;;;;;;8.60;6.60;;;;;;;16.57;83.38;99637.59;10418823;28;20211;-78
2021/07/21 23:57:59;;;;;;;7.50;6.70;;;;;;;16.54;83.50;99643.22;10417518;28;20176;-78
